Boca Raton, FL (33487)

12:00 PM EST on November 22, 2014 (GMT -0500)
Bel Lido | Change Station
CLOSE
Current Station
Personal Weather Station
Location: Highland Beach, FL
Elevation: 10 ft
Nearby Weather Stations

Elev 10 ft 26.40 °N, 80.07 °W | Updated 3 seconds ago

Overcast
Overcast
75.7 °F
Feels Like 76 °F
N
8.1
Wind Variable Wind from NE
Gusts 8.1 mph

Today
High -- | Low -- °F
--% Chance of Precip.
Yesterday
High -- | Low -- °F
Precip. -- in
6:44 AM 5:28 PM
New Moon, 0% visible
Pressure 30.17 in
Visibility 2.5 miles
Clouds Few 2300 ft
Scattered Clouds 3000 ft
Mostly Cloudy 3800 ft
Heat Index 76 °F
Dew Point 70 °F
Humidity 83%
Rainfall 0.01 in
Snow Depth Not available.
UV 4 out of 12
Pollen 4.30 out of 12
Air Quality Not available.
Flu Activity Not available.
METAR KPMP 221653Z 09015G25KT 2 1/2SM HZ FEW023 SCT030 BKN038 26/22 A3017 RMK AO2 PK WND 08027/1637 RAB1559E53 SLP217 P0001 T02560222

More Conditions Fewer Conditions

Pressure 30.17 in
Visibility 2.5 miles
Clouds Few 2300 ft
Scattered Clouds 3000 ft
Mostly Cloudy 3800 ft
Heat Index 76 °F
Dew Point 70 °F
Humidity 83%
Rainfall 0.01 in
Snow Depth Not available.
UV 4 out of 12
Pollen 4.30 out of 12
Air Quality Not available.
Flu Activity Not available.
METAR KPMP 221653Z 09015G25KT 2 1/2SM HZ FEW023 SCT030 BKN038 26/22 A3017 RMK AO2 PK WND 08027/1637 RAB1559E53 SLP217 P0001 T02560222

More Conditions Fewer Conditions

10-Day Weather Forecast

Almanac

Astronomy

Nov. 22, 2014 Rise Set
Actual Time
Civil Twilight
Nautical Twilight
Astronomical Twilight
Moon
Length of Visible Light
Length of Day
Tomorrow will be .
, % of the Moon is Illuminated

Today's Extremes

State Highs State Lows

Community

WunderPhotos

Upload Photos

1,772,855 photos uploaded!

WunderBlogs® & News

Nearby

Air Quality

  Air Quality AQ Index Pollutant
Not available.

Snow Depth

Station Depth Elevation

Earthquake Activity

City Distance Mag. Time & Date
Minimum magnitude displayed is 2.5.

Coastal Water Temperatures

Place Temperature

Nearby Weather Stations